ACT        NSW        VIC        QLD        SA        WA        TAS        NT        INFO        CALC            by VK5ZD

  Atmospheric Gas Attenuation - ITU Rec 676-11   --------------- db/100km ---------------
QLD Stations Date Time Temp RH % AH g/m3 Dew Point Wind Direction Speed kph Gust kph Barometer mB Rainfall Since 9am 24GHz 47GHz 76GHz 122GHz 134GHz 241GHz
Alva Beach 15 00:20 15.5 96 12.69 14.9 7 7 1015.6 0 28.3 32.5 56.4 148.6 153.3 530.3
Amberley 15 00:20 9 92 8.11 7.8 7 9 1014.1 0 18.8 26.5 40.3 105.6 97.9 336.2
Applethorpe 15 00:20 7.1 88 6.87 5.2 0 0 1015.2 0 16.2 25.1 36.1 94.4 83.3 284.5
Archerfield 15 00:20 12.8 83 9.3 10 7 7 1014.4 0 21.1 27.4 43.2 113.6 109.3 376.4
Ayr 15 00:20 11.7 96 10.04 11.1 0 0 1013.1 0 22.8 29.0 47.0 123.6 121.2 418.0
Ballera 15 00:20 13.2 62 7.12 6.1 11 13 1016.7 0 16.5 23.8 34.4 90.0 80.2 274.7
Barcaldine 14 15:00 28 15 4.08 -0.6 0 1013.1 0 9.6 16.5 19.6 50.7 36.8 123.7
Beaudesert Aws 15 00:20 11.6 90 9.36 10.1 0 0 1014.8 0 21.3 27.9 44.2 116.1 111.9 385.3
Beerburrum 15 00:20 10.7 98 9.63 10.4 0 0 1013.1 0 22.0 28.6 45.8 120.4 116.9 402.8
Biloela 15 00:20 5.2 62 4.27 -1.5 6 6 1016.1 0 10.7 21.4 26.6 69.0 51.1 171.3
Birdsville 15 00:20 15.2 66 8.57 8.9 15 15 1018.3 0 19.5 25.6 39.2 102.8 96.7 332.5
Blackall 15 00:20 11.8 44 4.63 0 15 15 1016 0 11.2 20.5 25.8 66.9 51.2 172.5
Blackwater Airport 15 00:20 7.8 65 5.31 1.6 6 6 1015.5 0 12.8 22.4 29.6 77.1 62.2 210.8
Bowen Airport Aws 15 00:20 13.4 90 10.46 11.8 11 13 1013.1 0 23.6 29.1 47.8 125.7 124.4 429.5
Brisbane 15 00:20 13.9 81 9.71 10.8 0 0 1014.5 0 22.0 27.7 44.4 116.6 113.3 390.7
Brisbane Airport 15 00:20 14.1 81 9.83 10.9 0 0 1014.4 0 22.2 27.9 44.7 117.6 114.7 395.4
Bundaberg 15 00:20 11.4 92 9.44 10.1 9 9 1015.2 0 21.5 28.1 44.7 117.4 113.3 390.4
Burketown Airport 15 00:20 14.3 83 10.2 11.5 9 9 1014.6 0 23.0 28.4 46.2 121.5 119.5 412.4
Cairns 15 00:20 18.9 84 13.61 16.1 15 17 1015.7 0 30.0 32.8 58.0 152.9 159.7 553.4
Cairns Racecourse 15 00:20 17.4 95 14.08 16.6 9 9 1016 0 31.1 34.3 61.3 161.7 170.0 589.0
Camooweal 15 00:20 14.8 48 6.08 3.9 6 7 1016.3 0 14.2 21.9 29.9 78.0 66.0 225.0
Canungra (Defence) 15 00:20 10.8 99 9.79 10.6 0 0 1013.1 0 22.3 28.8 46.4 122.1 119.0 410.3
Cape Flattery 15 00:20 23.5 65 13.75 16.5 19 22 1015 0 30.0 31.3 55.2 145.6 152.2 527.8
Cape Moreton 15 00:20 16.1 79 10.83 12.5 17 19 1014.2 0 24.2 28.9 47.7 125.7 125.3 432.9
Carters Bore 15 00:20 17.9 33 5.04 1.4 6 7 1013.1 0 11.9 19.6 25.2 65.5 51.8 175.3
Charleville 15 00:20 6.4 64 4.77 0.1 0 0 1016.1 0 11.7 21.9 28.1 73.0 56.5 190.6
Chinchilla Airport 15 00:20 5 87 5.92 3 6 6 1016.4 0 14.2 24.1 33.1 86.5 72.6 246.9
Clermont Airport 15 00:20 6.7 61 4.64 -0.3 0 0 1015.7 0 11.4 21.6 27.5 71.4 54.7 184.1
Cloncurry 15 00:20 13.7 56 6.63 5.1 13 13 1015.9 0 15.4 22.9 32.3 84.5 73.6 251.5
Coen Airport 15 00:20 14.6 97 12.14 14.1 0 0 1014 0 27.1 31.7 54.4 143.5 146.7 507.4
Cooktown 15 00:20 21.4 71 13.31 15.9 13 15 1015.3 0 29.2 31.4 54.8 144.6 150.3 520.9
Coolangatta 15 00:20 14 91 10.98 12.6 6 6 1014.7 0 24.7 29.9 49.7 130.9 131.0 452.5
Cowley Beach (Defence) 15 00:20 16.1 96 13.16 15.4 4 6 1013.1 0 29.2 33.0 57.9 152.8 158.7 549.5
Dalby 15 00:20 5.4 85 5.93 3.1 11 13 1014.4 0 14.2 23.9 32.9 86.0 72.2 245.7
Double Island Point 15 00:19 16.8 72 10.29 11.7 22 30 1015 0 23.0 27.8 45.1 118.7 116.9 403.7
Emerald 15 00:20 9.6 57 5.22 1.5 7 7 1015.3 0 12.5 21.8 28.6 74.5 59.7 202.2
Gatton 15 00:20 9 74 6.53 4.6 0 0 1013.1 0 15.4 23.9 33.8 88.3 76.6 261.6
Gayndah 15 00:20 8.6 77 6.62 4.9 0 0 1015.2 0 15.6 24.2 34.4 89.9 78.3 267.5
Georgetown Airport 15 00:20 10.5 76 7.37 6.5 7 7 1014.7 0 17.1 24.9 36.5 95.6 86.2 295.3
Gladstone 15 00:20 15.8 81 10.9 12.5 7 9 1016 0 24.4 29.2 48.3 127.2 127.0 438.6
Gladstone Airport 15 00:20 12.9 84 9.47 10.3 0 0 1016.2 0 21.5 27.7 44.0 115.6 111.6 384.7
Gold Coast Seaway 15 00:20 15.2 85 11.03 12.7 9 9 1014.7 0 24.7 29.6 49.2 129.5 129.7 448.0
Goondiwindi 15 00:20 7.3 89 7.04 5.7 0 0 1013.1 0 16.5 25.2 36.6 95.8 85.2 291.4
Greenbank (Defence) 15 00:20 10.7 98 9.63 10.4 0 0 1013.1 0 22.0 28.6 45.8 120.4 116.9 402.8
Gympie 15 00:20 8.1 96 7.99 7.5 2 2 1015.4 0 18.5 26.7 40.3 105.6 97.5 334.6
Hamilton Island 15 00:20 19.1 88 14.42 17.1 0 0 1015.6 0 31.7 34.2 61.4 162.2 171.2 593.4
Hervey Bay 15 00:20 10.2 94 8.95 9.3 0 0 1015.3 0 20.5 27.6 43.2 113.6 108.2 372.2
Horn Island 14 22:00 24.8 79 17.98 20.9 17 24 1013.8 0 38.8 38.2 72.7 192.1 209.9 728.8
Hughenden 15 00:20 12.6 40 4.43 -0.6 0 0 1015.3 0 10.8 20.0 24.8 64.3 48.3 162.7
Ingham Aerodrome 15 00:20 14.1 100 12.14 14.1 0 0 1013.1 0 27.2 31.9 54.7 144.3 147.6 510.4
Innisfail Aero 15 00:20 15.4 98 12.88 15.1 4 6 1016.1 0 28.7 32.9 57.3 151.2 156.4 541.1
Julia Creek 15 00:20 12.8 46 5.15 1.5 15 17 1015.4 0 12.3 21.0 27.3 70.9 56.5 191.5
Kingaroy 15 00:20 3.5 94 5.79 2.6 7 7 1015.8 0 14.0 24.3 33.2 86.7 72.2 245.3
Kowanyama 15 00:20 19.2 96 15.83 18.5 7 7 1014.1 0 34.7 36.7 67.8 179.1 192.1 666.3
Lady Elliot Island 15 00:20 16.2 78 10.76 12.4 11 13 1015.6 0 24.1 28.8 47.5 124.9 124.3 429.5
Lake Julius 15 00:20 14.1 65 7.89 7.6 0 0 1013.1 0 18.1 24.7 36.8 96.6 88.8 304.9
Lochington 15 00:20 7.5 57 4.56 -0.3 2 2 1015.2 0 11.2 21.3 26.9 69.8 53.1 178.8
Lockhart River 15 00:20 17.3 98 14.44 17 0 0 1013.9 0 31.9 34.9 62.9 166.1 175.4 607.9
Logan City 14 15:00 21 41 7.51 7.4 4 1013.1 0 17.0 22.3 32.5 85.0 77.0 264.3
Longreach 15 00:20 14.6 34 4.25 -1.1 11 11 1016.1 0 10.3 19.3 23.6 61.2 45.2 151.9
Low Isles 15 00:20 22.8 74 15.04 17.9 17 19 1015.3 0 32.7 33.8 61.2 161.7 171.8 596.1
Mackay 15 00:20 15.2 96 12.46 14.6 13 17 1015.7 0 27.8 32.2 55.5 146.4 150.5 520.5
Mackay Airport 15 00:20 13 97 11 12.5 11 11 1015.9 0 24.8 30.3 50.5 133.0 133.2 459.9
Mackay Racecourse 15 00:20 12.5 98 10.78 12.2 6 6 1013.1 0 24.3 30.0 49.7 130.9 130.6 450.7
Mareeba 15 00:20 14.1 93 11.29 13 0 0 1015.7 0 25.3 30.5 51.1 134.5 135.4 467.9
Maryborough 15 00:20 10.7 99 9.73 10.5 0 0 1015.6 0 22.2 28.9 46.3 121.9 118.6 408.6
Middle Percy Island 15 00:20 18.3 78 12.19 14.4 7 7 1016.1 0 27.0 30.6 52.2 137.6 140.7 486.8
Miles 15 00:20 5.7 88 6.27 3.9 7 9 1016 0 14.9 24.5 34.2 89.5 76.6 261.1
Moranbah Airport 15 00:20 9.1 59 5.24 1.5 0 0 1015.8 0 12.6 22.0 28.9 75.2 60.3 204.4
Mornington Island Airport 15 00:20 15.9 92 12.46 14.6 7 9 1014.4 0 27.7 31.8 55.0 144.9 148.9 515.3
Mount Isa 15 00:20 10 69 6.49 4.6 15 15 1016.8 0 15.2 23.7 33.3 87.1 75.4 257.3
Mount Stuart (Defence) 15 00:20 17.8 85 12.9 15.2 4 4 1013.1 0 28.6 31.9 55.5 146.3 151.4 524.2
Nambour 15 00:20 11.2 90 9.12 9.7 0 0 1014.8 0 20.8 27.6 43.4 114.0 109.1 375.6
New May Downs 15 00:20 18.2 35 5.44 2.5 9 9 1013.1 0 12.7 20.1 26.4 68.8 55.9 190.1
Normanton 15 00:20 17.6 94 14.1 16.6 7 9 1014.6 0 31.1 34.2 61.1 161.3 169.7 587.9
Oakey 15 00:20 5 87 5.92 3 6 6 1015.8 0 14.2 24.1 33.1 86.4 72.6 246.8
Palmerville 15 00:20 14.3 93 11.43 13.2 4 6 1014.2 0 25.6 30.6 51.5 135.6 136.9 473.2
Portable Qfrf Cr 15 00:00 17.9 91 13.89 16.5 2 4 1013.1 0 30.7 33.6 59.8 157.9 165.7 574.1
Portable Qfri (Inglewood) 15 00:10 8.3 93 7.84 7.3 2 4 1013.1 0.2 18.2 26.2 39.4 103.4 95.0 325.9
Portable Qfrj (North Tamborine) 14 23:20 12.5 94 10.34 11.6 2 4 1013.1 0.2 23.4 29.2 47.8 125.8 124.2 428.6
Portable Qfrk (Ravenshoe) 15 00:10 8 99 8.19 7.9 2 4 1013.1 0 19.0 26.9 41.1 107.8 100.3 344.3
Portable Qfrl (Mt Fox) 15 00:00 14.6 97 12.14 14.2 0 2 1013.1 0 27.1 31.7 54.4 143.4 146.6 507.1
Portable Qfrm (Anduramba) 15 00:00 12.3 44 4.78 0.6 9 11 1013.1 0 11.5 20.5 26.0 67.7 52.4 177.1
Portable Qfrn (Wieambilla) 15 00:00 6.1 82 5.99 3.2 4 6 1013.1 0 14.3 23.8 32.8 85.7 72.3 246.0
Redcliffe 15 00:20 13.9 87 10.43 11.8 7 7 1014.2 0 23.5 29.0 47.4 124.7 123.3 425.6
Redland (Alexandra Hills) 15 00:20 12.4 86 9.4 10.1 6 6 1013.1 0 21.4 27.6 43.8 115.2 111.1 382.8
Richmond 15 00:20 10.9 45 4.48 -0.5 7 9 1015.3 0 10.9 20.4 25.5 66.2 50.0 168.1
Rockhampton 15 00:20 11.9 93 9.85 10.8 0 0 1016.1 0 22.4 28.7 46.2 121.4 118.5 408.4
Rolleston Airport 15 00:20 6.9 68 5.24 1.4 4 4 1015.9 0 12.7 22.5 29.7 77.3 62.1 210.1
Roma 15 00:20 3.9 89 5.63 2.3 11 11 1014.9 0 13.6 23.9 32.3 84.4 69.6 236.3
Samuel Hill 15 00:20 9.3 97 8.72 8.8 0 0 1015.9 0 20.1 27.6 42.8 112.3 106.2 365.3
Scherger 15 00:20 20.9 83 15.12 17.9 6 7 1013.6 0 33.1 34.7 63.0 166.5 177.2 614.4
South Johnstone 15 00:20 15.6 97 12.9 15.1 0 0 1016.2 0 28.7 32.8 57.3 151.0 156.2 540.8
St George 15 00:20 5.1 94 6.43 4.2 7 7 1015.9 0 15.3 24.9 35.2 92.0 79.4 270.7
St Lawrence 15 00:20 13.3 75 8.67 9 2 6 1015.7 0 19.8 26.2 40.4 106.1 100.2 344.6
Stanthorpe 14 15:00 16.1 33 4.52 0 1013.1 0 10.9 19.3 24.0 62.3 47.2 159.0
Sunshine Coast Airport 15 00:20 9.9 93 8.69 8.8 11 11 1014.9 0 20.0 27.3 42.3 111.0 104.9 360.7
Tewantin 15 00:20 11.8 93 9.79 10.7 0 0 1015.2 0 22.2 28.6 45.9 120.8 117.7 405.6
Thargomindah 15 00:20 8.9 82 7.19 6 2 6 1017 0 16.8 25.1 36.6 95.9 85.7 293.4
The Monument 15 00:20 14.2 50 6.11 3.9 11 11 1017.8 0 14.3 22.1 30.3 79.0 66.9 228.2
Tin Can Bay (Defence) 15 00:20 11.5 92 9.5 10.2 0 0 1013.1 0 21.6 28.1 44.8 117.7 113.8 392.2
Toowoomba 15 00:20 8.9 61 5.35 1.8 6 6 1015.8 0 12.8 22.2 29.4 76.5 61.9 209.7
Townsville 15 00:20 14.4 95 11.74 13.6 0 0 1015.8 0 26.3 31.2 52.9 139.3 141.4 488.9
Townsville - Fanning River (Defence) 15 00:20 13.4 95 11.04 12.7 0 0 1013.1 0 24.9 30.2 50.3 132.5 132.8 458.5
Townsville Air Weapons Range (Defence) 15 00:20 12.8 97 10.87 12.3 9 9 1013.1 0 24.5 30.1 49.9 131.5 131.3 453.5
Trepell 15 00:20 12.9 52 5.86 3.3 15 15 1017.2 0 13.8 22.0 29.8 77.8 65.0 221.2
Urandangi 15 00:20 10.6 62 6.05 3.6 7 7 1018 0 14.3 22.9 31.5 82.0 69.3 236.1
Warwick 15 00:20 8.6 80 6.88 5.4 0 0 1014.9 0 16.1 24.6 35.4 92.6 81.8 279.5
Weipa 15 00:20 19.4 86 14.35 17 7 7 1013.5 0 31.5 33.9 60.8 160.4 169.2 586.6
Wellcamp Airport 15 00:20 4.7 80 5.33 1.5 9 11 1017.5 0 13.0 23.3 30.9 80.6 65.1 220.5
Williamson 15 00:20 10.7 96 9.43 10.1 0 0 1015.9 0 21.5 28.3 45.1 118.4 114.3 393.7
Willis Island 15 00:20 24.3 62 13.72 16.6 20 20 1014.3 0 29.8 31.0 54.5 143.7 150.2 520.8
Windorah 15 00:20 11.2 58 5.88 3.3 9 9 1017.1 0 13.9 22.5 30.5 79.6 66.6 226.8
Winton 15 00:20 12.5 41 4.51 -0.4 7 9 1016.4 0 10.9 20.2 25.2 65.2 49.4 166.2
Yeppoon 15 00:20 14 93 11.22 12.9 7 7 1016 0 25.2 30.4 50.8 133.9 134.6 465.1

Last Refresh: 15-Jun-2024 00:05:03

Bureau of Meteorology